sensor_id;sensor_type;location;lat;lon;timestamp;P1;durP1;ratioP1;P2;durP2;ratioP2
64235;SDS011;50564;47.402;9.740;2024-01-16T00:00:05;10.63;;;5.25;;
64235;SDS011;50564;47.402;9.740;2024-01-16T00:05:07;9.23;;;4.65;;
64235;SDS011;50564;47.402;9.740;2024-01-16T00:10:08;8.52;;;4.30;;
64235;SDS011;50564;47.402;9.740;2024-01-16T00:15:08;9.38;;;5.32;;
64235;SDS011;50564;47.402;9.740;2024-01-16T00:20:09;9.88;;;5.05;;
64235;SDS011;50564;47.402;9.740;2024-01-16T00:25:11;10.15;;;4.80;;
64235;SDS011;50564;47.402;9.740;2024-01-16T00:30:12;10.25;;;4.38;;
64235;SDS011;50564;47.402;9.740;2024-01-16T00:35:13;9.15;;;4.80;;
64235;SDS011;50564;47.402;9.740;2024-01-16T00:40:14;9.35;;;4.88;;
64235;SDS011;50564;47.402;9.740;2024-01-16T00:45:15;10.63;;;5.45;;
64235;SDS011;50564;47.402;9.740;2024-01-16T00:50:17;9.73;;;5.22;;
64235;SDS011;50564;47.402;9.740;2024-01-16T00:55:18;9.88;;;5.25;;
64235;SDS011;50564;47.402;9.740;2024-01-16T01:00:18;9.85;;;4.72;;
64235;SDS011;50564;47.402;9.740;2024-01-16T01:05:19;11.18;;;5.28;;
64235;SDS011;50564;47.402;9.740;2024-01-16T01:10:20;11.48;;;5.55;;
64235;SDS011;50564;47.402;9.740;2024-01-16T01:15:21;10.80;;;5.50;;
64235;SDS011;50564;47.402;9.740;2024-01-16T01:20:22;11.30;;;5.38;;
64235;SDS011;50564;47.402;9.740;2024-01-16T01:25:23;10.07;;;5.68;;
64235;SDS011;50564;47.402;9.740;2024-01-16T01:30:23;8.98;;;5.18;;
64235;SDS011;50564;47.402;9.740;2024-01-16T01:35:24;10.52;;;5.65;;
64235;SDS011;50564;47.402;9.740;2024-01-16T01:40:25;10.45;;;4.95;;
64235;SDS011;50564;47.402;9.740;2024-01-16T01:45:25;11.48;;;5.72;;
64235;SDS011;50564;47.402;9.740;2024-01-16T01:50:26;11.00;;;5.00;;
64235;SDS011;50564;47.402;9.740;2024-01-16T01:55:27;8.32;;;4.57;;
64235;SDS011;50564;47.402;9.740;2024-01-16T02:00:28;9.77;;;4.80;;
64235;SDS011;50564;47.402;9.740;2024-01-16T02:05:29;8.73;;;4.78;;
64235;SDS011;50564;47.402;9.740;2024-01-16T02:10:30;9.75;;;5.03;;
64235;SDS011;50564;47.402;9.740;2024-01-16T02:15:32;10.43;;;5.05;;
64235;SDS011;50564;47.402;9.740;2024-01-16T02:20:32;9.90;;;5.07;;
64235;SDS011;50564;47.402;9.740;2024-01-16T02:25:33;10.73;;;4.40;;
64235;SDS011;50564;47.402;9.740;2024-01-16T02:30:35;7.80;;;4.50;;
64235;SDS011;50564;47.402;9.740;2024-01-16T02:35:35;8.98;;;5.00;;
64235;SDS011;50564;47.402;9.740;2024-01-16T02:40:36;10.05;;;4.68;;
64235;SDS011;50564;47.402;9.740;2024-01-16T02:45:36;9.57;;;4.55;;
64235;SDS011;50564;47.402;9.740;2024-01-16T02:50:37;10.20;;;4.78;;
64235;SDS011;50564;47.402;9.740;2024-01-16T02:55:38;8.30;;;4.10;;
64235;SDS011;50564;47.402;9.740;2024-01-16T03:00:39;10.10;;;4.72;;
64235;SDS011;50564;47.402;9.740;2024-01-16T03:05:40;9.82;;;4.28;;
64235;SDS011;50564;47.402;9.740;2024-01-16T03:10:40;12.02;;;4.95;;
64235;SDS011;50564;47.402;9.740;2024-01-16T03:15:41;8.82;;;4.60;;
64235;SDS011;50564;47.402;9.740;2024-01-16T03:20:42;8.63;;;4.55;;
64235;SDS011;50564;47.402;9.740;2024-01-16T03:25:43;8.63;;;4.35;;
64235;SDS011;50564;47.402;9.740;2024-01-16T03:30:43;9.63;;;4.85;;
64235;SDS011;50564;47.402;9.740;2024-01-16T03:35:44;8.23;;;4.10;;
64235;SDS011;50564;47.402;9.740;2024-01-16T03:40:45;6.97;;;4.18;;
64235;SDS011;50564;47.402;9.740;2024-01-16T03:45:45;7.05;;;3.90;;
64235;SDS011;50564;47.402;9.740;2024-01-16T03:50:46;8.85;;;4.20;;
64235;SDS011;50564;47.402;9.740;2024-01-16T03:55:47;8.70;;;3.95;;
64235;SDS011;50564;47.402;9.740;2024-01-16T04:00:48;9.82;;;4.53;;
64235;SDS011;50564;47.402;9.740;2024-01-16T04:05:50;7.57;;;3.45;;
64235;SDS011;50564;47.402;9.740;2024-01-16T04:10:51;8.10;;;4.10;;
64235;SDS011;50564;47.402;9.740;2024-01-16T04:15:52;9.13;;;5.32;;
64235;SDS011;50564;47.402;9.740;2024-01-16T04:20:52;8.75;;;4.60;;
64235;SDS011;50564;47.402;9.740;2024-01-16T04:25:53;7.80;;;4.10;;
64235;SDS011;50564;47.402;9.740;2024-01-16T04:30:53;6.57;;;3.90;;
64235;SDS011;50564;47.402;9.740;2024-01-16T04:35:54;7.68;;;4.13;;
64235;SDS011;50564;47.402;9.740;2024-01-16T04:40:55;8.00;;;4.53;;
64235;SDS011;50564;47.402;9.740;2024-01-16T04:45:56;9.10;;;4.38;;
64235;SDS011;50564;47.402;9.740;2024-01-16T04:50:57;10.07;;;4.68;;
64235;SDS011;50564;47.402;9.740;2024-01-16T04:55:57;8.05;;;4.90;;
64235;SDS011;50564;47.402;9.740;2024-01-16T05:00:58;7.05;;;4.07;;
64235;SDS011;50564;47.402;9.740;2024-01-16T05:05:58;10.07;;;4.50;;
64235;SDS011;50564;47.402;9.740;2024-01-16T05:10:59;6.30;;;3.85;;
64235;SDS011;50564;47.402;9.740;2024-01-16T05:15:59;8.27;;;4.70;;
64235;SDS011;50564;47.402;9.740;2024-01-16T05:21:03;9.40;;;4.65;;
64235;SDS011;50564;47.402;9.740;2024-01-16T05:26:04;8.38;;;4.43;;
64235;SDS011;50564;47.402;9.740;2024-01-16T05:31:05;8.32;;;4.63;;
64235;SDS011;50564;47.402;9.740;2024-01-16T05:36:06;11.10;;;5.38;;
64235;SDS011;50564;47.402;9.740;2024-01-16T05:41:07;11.05;;;5.97;;
64235;SDS011;50564;47.402;9.740;2024-01-16T05:46:07;8.65;;;4.90;;
64235;SDS011;50564;47.402;9.740;2024-01-16T05:51:09;10.65;;;5.13;;
64235;SDS011;50564;47.402;9.740;2024-01-16T05:56:10;8.85;;;5.38;;
64235;SDS011;50564;47.402;9.740;2024-01-16T06:01:11;9.38;;;5.20;;
64235;SDS011;50564;47.402;9.740;2024-01-16T06:06:13;9.60;;;5.15;;
64235;SDS011;50564;47.402;9.740;2024-01-16T06:11:14;12.15;;;7.78;;
64235;SDS011;50564;47.402;9.740;2024-01-16T06:16:14;14.27;;;9.88;;
64235;SDS011;50564;47.402;9.740;2024-01-16T06:21:15;12.35;;;6.70;;
64235;SDS011;50564;47.402;9.740;2024-01-16T06:26:16;18.25;;;9.80;;
64235;SDS011;50564;47.402;9.740;2024-01-16T06:31:17;12.98;;;7.25;;
64235;SDS011;50564;47.402;9.740;2024-01-16T06:36:18;13.98;;;7.30;;
64235;SDS011;50564;47.402;9.740;2024-01-16T06:41:18;16.00;;;9.32;;
64235;SDS011;50564;47.402;9.740;2024-01-16T06:46:19;16.83;;;9.70;;
64235;SDS011;50564;47.402;9.740;2024-01-16T06:51:20;9.93;;;5.13;;
64235;SDS011;50564;47.402;9.740;2024-01-16T06:56:20;9.95;;;5.00;;
64235;SDS011;50564;47.402;9.740;2024-01-16T07:01:21;10.52;;;5.93;;
64235;SDS011;50564;47.402;9.740;2024-01-16T07:06:22;10.07;;;5.35;;
64235;SDS011;50564;47.402;9.740;2024-01-16T07:11:22;12.35;;;6.95;;
64235;SDS011;50564;47.402;9.740;2024-01-16T07:16:23;13.63;;;6.60;;
64235;SDS011;50564;47.402;9.740;2024-01-16T07:21:24;9.80;;;5.50;;
64235;SDS011;50564;47.402;9.740;2024-01-16T07:26:25;12.80;;;6.15;;
64235;SDS011;50564;47.402;9.740;2024-01-16T07:31:26;11.43;;;5.65;;
64235;SDS011;50564;47.402;9.740;2024-01-16T07:36:26;9.88;;;5.35;;
64235;SDS011;50564;47.402;9.740;2024-01-16T07:41:27;11.23;;;5.88;;
64235;SDS011;50564;47.402;9.740;2024-01-16T07:46:28;10.27;;;4.60;;
64235;SDS011;50564;47.402;9.740;2024-01-16T07:51:28;9.50;;;4.55;;
64235;SDS011;50564;47.402;9.740;2024-01-16T07:56:29;10.45;;;4.88;;
64235;SDS011;50564;47.402;9.740;2024-01-16T08:01:30;12.30;;;6.13;;
64235;SDS011;50564;47.402;9.740;2024-01-16T08:06:30;11.95;;;6.88;;
64235;SDS011;50564;47.402;9.740;2024-01-16T08:11:31;11.55;;;5.90;;
64235;SDS011;50564;47.402;9.740;2024-01-16T08:16:34;9.35;;;4.72;;
64235;SDS011;50564;47.402;9.740;2024-01-16T08:21:35;12.32;;;6.70;;
64235;SDS011;50564;47.402;9.740;2024-01-16T08:26:36;24.45;;;11.07;;
64235;SDS011;50564;47.402;9.740;2024-01-16T08:31:37;21.75;;;11.80;;
64235;SDS011;50564;47.402;9.740;2024-01-16T08:36:37;33.25;;;19.05;;
64235;SDS011;50564;47.402;9.740;2024-01-16T08:41:38;28.27;;;18.20;;
64235;SDS011;50564;47.402;9.740;2024-01-16T08:46:39;35.03;;;21.27;;
64235;SDS011;50564;47.402;9.740;2024-01-16T08:51:39;26.48;;;16.38;;
64235;SDS011;50564;47.402;9.740;2024-01-16T08:56:41;21.95;;;12.82;;
64235;SDS011;50564;47.402;9.740;2024-01-16T09:01:42;23.10;;;13.27;;
64235;SDS011;50564;47.402;9.740;2024-01-16T09:06:42;19.92;;;10.73;;
64235;SDS011;50564;47.402;9.740;2024-01-16T09:11:43;11.65;;;6.50;;
64235;SDS011;50564;47.402;9.740;2024-01-16T09:16:43;7.32;;;3.47;;
64235;SDS011;50564;47.402;9.740;2024-01-16T09:21:44;9.40;;;5.30;;
64235;SDS011;50564;47.402;9.740;2024-01-16T09:26:45;29.33;;;15.80;;
64235;SDS011;50564;47.402;9.740;2024-01-16T09:31:45;35.05;;;20.77;;
64235;SDS011;50564;47.402;9.740;2024-01-16T09:36:46;23.55;;;15.75;;
64235;SDS011;50564;47.402;9.740;2024-01-16T09:41:47;25.08;;;15.90;;
64235;SDS011;50564;47.402;9.740;2024-01-16T09:46:49;21.20;;;12.38;;
64235;SDS011;50564;47.402;9.740;2024-01-16T09:51:51;18.58;;;11.27;;
64235;SDS011;50564;47.402;9.740;2024-01-16T09:56:51;18.23;;;10.27;;
64235;SDS011;50564;47.402;9.740;2024-01-16T10:01:54;16.20;;;9.55;;
64235;SDS011;50564;47.402;9.740;2024-01-16T10:06:55;17.98;;;10.57;;
64235;SDS011;50564;47.402;9.740;2024-01-16T10:11:57;17.95;;;10.43;;
64235;SDS011;50564;47.402;9.740;2024-01-16T10:17:00;17.90;;;9.73;;
64235;SDS011;50564;47.402;9.740;2024-01-16T10:22:23;22.38;;;12.68;;
64235;SDS011;50564;47.402;9.740;2024-01-16T10:27:25;25.25;;;12.85;;
64235;SDS011;50564;47.402;9.740;2024-01-16T10:32:31;17.25;;;9.50;;
64235;SDS011;50564;47.402;9.740;2024-01-16T10:43:04;11.60;;;6.78;;
64235;SDS011;50564;47.402;9.740;2024-01-16T10:53:07;16.75;;;9.60;;
64235;SDS011;50564;47.402;9.740;2024-01-16T10:58:08;14.23;;;8.63;;
64235;SDS011;50564;47.402;9.740;2024-01-16T11:03:11;11.00;;;5.90;;
64235;SDS011;50564;47.402;9.740;2024-01-16T11:08:16;11.68;;;6.03;;
64235;SDS011;50564;47.402;9.740;2024-01-16T11:13:17;10.18;;;5.97;;
64235;SDS011;50564;47.402;9.740;2024-01-16T11:18:19;14.05;;;7.97;;
64235;SDS011;50564;47.402;9.740;2024-01-16T11:23:20;11.48;;;6.68;;
64235;SDS011;50564;47.402;9.740;2024-01-16T11:28:20;9.57;;;6.13;;
64235;SDS011;50564;47.402;9.740;2024-01-16T11:38:34;9.10;;;5.47;;
64235;SDS011;50564;47.402;9.740;2024-01-16T11:43:35;7.15;;;4.00;;
64235;SDS011;50564;47.402;9.740;2024-01-16T11:48:39;8.57;;;5.18;;
64235;SDS011;50564;47.402;9.740;2024-01-16T11:53:40;10.60;;;4.97;;
64235;SDS011;50564;47.402;9.740;2024-01-16T12:04:19;6.93;;;3.73;;
64235;SDS011;50564;47.402;9.740;2024-01-16T12:09:21;6.97;;;3.78;;
64235;SDS011;50564;47.402;9.740;2024-01-16T12:14:22;6.45;;;3.83;;
64235;SDS011;50564;47.402;9.740;2024-01-16T12:19:23;5.72;;;3.53;;
64235;SDS011;50564;47.402;9.740;2024-01-16T12:24:23;6.75;;;3.75;;
64235;SDS011;50564;47.402;9.740;2024-01-16T12:29:24;5.78;;;3.38;;
64235;SDS011;50564;47.402;9.740;2024-01-16T12:34:24;7.85;;;3.75;;
64235;SDS011;50564;47.402;9.740;2024-01-16T12:39:25;7.40;;;3.70;;
64235;SDS011;50564;47.402;9.740;2024-01-16T12:44:29;6.25;;;3.38;;
64235;SDS011;50564;47.402;9.740;2024-01-16T12:49:30;6.38;;;3.72;;
64235;SDS011;50564;47.402;9.740;2024-01-16T12:54:31;8.23;;;3.90;;
64235;SDS011;50564;47.402;9.740;2024-01-16T12:59:32;5.88;;;3.60;;
64235;SDS011;50564;47.402;9.740;2024-01-16T13:04:32;5.88;;;3.72;;
64235;SDS011;50564;47.402;9.740;2024-01-16T13:09:33;7.10;;;3.78;;
64235;SDS011;50564;47.402;9.740;2024-01-16T13:14:34;10.88;;;3.80;;
64235;SDS011;50564;47.402;9.740;2024-01-16T13:19:34;9.02;;;4.07;;
64235;SDS011;50564;47.402;9.740;2024-01-16T13:24:36;8.38;;;4.28;;
64235;SDS011;50564;47.402;9.740;2024-01-16T13:29:37;7.65;;;3.75;;
64235;SDS011;50564;47.402;9.740;2024-01-16T13:34:39;5.45;;;2.90;;
64235;SDS011;50564;47.402;9.740;2024-01-16T13:39:46;5.70;;;3.17;;
64235;SDS011;50564;47.402;9.740;2024-01-16T13:44:47;7.07;;;3.80;;
64235;SDS011;50564;47.402;9.740;2024-01-16T13:49:47;4.55;;;2.95;;
64235;SDS011;50564;47.402;9.740;2024-01-16T13:54:48;6.28;;;2.90;;
64235;SDS011;50564;47.402;9.740;2024-01-16T13:59:49;5.63;;;3.25;;
64235;SDS011;50564;47.402;9.740;2024-01-16T14:04:51;6.35;;;3.45;;
64235;SDS011;50564;47.402;9.740;2024-01-16T14:09:51;6.53;;;3.50;;
64235;SDS011;50564;47.402;9.740;2024-01-16T14:14:52;5.95;;;3.60;;
64235;SDS011;50564;47.402;9.740;2024-01-16T14:19:53;6.93;;;3.88;;
64235;SDS011;50564;47.402;9.740;2024-01-16T14:24:53;7.88;;;4.28;;
64235;SDS011;50564;47.402;9.740;2024-01-16T14:29:54;9.00;;;4.50;;
64235;SDS011;50564;47.402;9.740;2024-01-16T14:34:54;7.65;;;4.45;;
64235;SDS011;50564;47.402;9.740;2024-01-16T14:39:56;8.23;;;3.88;;
64235;SDS011;50564;47.402;9.740;2024-01-16T14:44:56;7.80;;;4.32;;
64235;SDS011;50564;47.402;9.740;2024-01-16T14:49:57;7.40;;;4.05;;
64235;SDS011;50564;47.402;9.740;2024-01-16T14:54:58;6.55;;;3.58;;
64235;SDS011;50564;47.402;9.740;2024-01-16T15:00:00;6.38;;;3.80;;
64235;SDS011;50564;47.402;9.740;2024-01-16T15:05:01;7.20;;;3.10;;
64235;SDS011;50564;47.402;9.740;2024-01-16T15:10:07;4.22;;;2.60;;
64235;SDS011;50564;47.402;9.740;2024-01-16T15:15:10;6.75;;;3.75;;
64235;SDS011;50564;47.402;9.740;2024-01-16T15:20:13;6.45;;;3.78;;
64235;SDS011;50564;47.402;9.740;2024-01-16T15:25:13;7.40;;;3.60;;
64235;SDS011;50564;47.402;9.740;2024-01-16T15:30:16;6.90;;;4.10;;
64235;SDS011;50564;47.402;9.740;2024-01-16T15:35:16;9.00;;;4.47;;
64235;SDS011;50564;47.402;9.740;2024-01-16T15:40:17;8.52;;;6.40;;
64235;SDS011;50564;47.402;9.740;2024-01-16T15:45:18;7.47;;;3.85;;
64235;SDS011;50564;47.402;9.740;2024-01-16T15:50:18;8.25;;;4.75;;
64235;SDS011;50564;47.402;9.740;2024-01-16T15:55:19;6.95;;;3.80;;
64235;SDS011;50564;47.402;9.740;2024-01-16T16:00:19;7.53;;;4.10;;
64235;SDS011;50564;47.402;9.740;2024-01-16T16:05:22;6.45;;;3.40;;
64235;SDS011;50564;47.402;9.740;2024-01-16T16:10:23;8.32;;;3.40;;
64235;SDS011;50564;47.402;9.740;2024-01-16T16:15:25;7.75;;;4.05;;
64235;SDS011;50564;47.402;9.740;2024-01-16T16:20:26;8.25;;;4.30;;
64235;SDS011;50564;47.402;9.740;2024-01-16T16:25:26;8.45;;;4.40;;
64235;SDS011;50564;47.402;9.740;2024-01-16T16:30:27;9.23;;;4.32;;
64235;SDS011;50564;47.402;9.740;2024-01-16T16:35:29;9.90;;;4.82;;
64235;SDS011;50564;47.402;9.740;2024-01-16T16:40:30;12.98;;;5.53;;
64235;SDS011;50564;47.402;9.740;2024-01-16T16:45:32;14.13;;;6.22;;
64235;SDS011;50564;47.402;9.740;2024-01-16T16:50:33;12.68;;;5.07;;
64235;SDS011;50564;47.402;9.740;2024-01-16T16:55:33;7.55;;;3.85;;
64235;SDS011;50564;47.402;9.740;2024-01-16T17:00:34;6.68;;;3.75;;
64235;SDS011;50564;47.402;9.740;2024-01-16T17:05:35;5.57;;;2.70;;
64235;SDS011;50564;47.402;9.740;2024-01-16T17:10:36;8.20;;;3.92;;
64235;SDS011;50564;47.402;9.740;2024-01-16T17:15:36;9.23;;;4.55;;
64235;SDS011;50564;47.402;9.740;2024-01-16T17:20:37;7.65;;;3.80;;
64235;SDS011;50564;47.402;9.740;2024-01-16T17:25:37;5.68;;;3.00;;
64235;SDS011;50564;47.402;9.740;2024-01-16T17:30:38;5.72;;;3.15;;
64235;SDS011;50564;47.402;9.740;2024-01-16T17:35:39;9.77;;;4.00;;
64235;SDS011;50564;47.402;9.740;2024-01-16T17:40:40;7.15;;;4.20;;
64235;SDS011;50564;47.402;9.740;2024-01-16T17:45:41;6.97;;;3.17;;
64235;SDS011;50564;47.402;9.740;2024-01-16T17:50:46;7.07;;;3.67;;
64235;SDS011;50564;47.402;9.740;2024-01-16T17:55:46;12.88;;;6.07;;
64235;SDS011;50564;47.402;9.740;2024-01-16T18:00:47;6.70;;;3.38;;
64235;SDS011;50564;47.402;9.740;2024-01-16T18:05:49;6.85;;;3.00;;
64235;SDS011;50564;47.402;9.740;2024-01-16T18:10:50;7.88;;;3.53;;
64235;SDS011;50564;47.402;9.740;2024-01-16T18:15:53;8.48;;;3.17;;
64235;SDS011;50564;47.402;9.740;2024-01-16T18:20:54;6.95;;;3.17;;
64235;SDS011;50564;47.402;9.740;2024-01-16T18:25:55;8.95;;;3.17;;
64235;SDS011;50564;47.402;9.740;2024-01-16T18:30:56;6.10;;;2.92;;
64235;SDS011;50564;47.402;9.740;2024-01-16T18:35:57;7.68;;;2.67;;
64235;SDS011;50564;47.402;9.740;2024-01-16T18:40:59;5.13;;;2.60;;
64235;SDS011;50564;47.402;9.740;2024-01-16T18:46:00;8.95;;;4.70;;
64235;SDS011;50564;47.402;9.740;2024-01-16T18:51:01;10.98;;;5.43;;
64235;SDS011;50564;47.402;9.740;2024-01-16T18:56:02;55.38;;;29.95;;
64235;SDS011;50564;47.402;9.740;2024-01-16T19:01:05;26.50;;;15.32;;
64235;SDS011;50564;47.402;9.740;2024-01-16T19:06:07;8.07;;;4.57;;
64235;SDS011;50564;47.402;9.740;2024-01-16T19:11:12;8.00;;;3.15;;
64235;SDS011;50564;47.402;9.740;2024-01-16T19:16:15;3.17;;;1.70;;
64235;SDS011;50564;47.402;9.740;2024-01-16T19:21:15;2.75;;;1.45;;
64235;SDS011;50564;47.402;9.740;2024-01-16T19:26:16;11.07;;;6.07;;
64235;SDS011;50564;47.402;9.740;2024-01-16T19:31:17;3.53;;;2.00;;
64235;SDS011;50564;47.402;9.740;2024-01-16T19:36:17;3.42;;;1.50;;
64235;SDS011;50564;47.402;9.740;2024-01-16T19:41:18;10.15;;;4.40;;
64235;SDS011;50564;47.402;9.740;2024-01-16T19:46:19;82.00;;;33.05;;
64235;SDS011;50564;47.402;9.740;2024-01-16T19:51:20;38.13;;;15.88;;
64235;SDS011;50564;47.402;9.740;2024-01-16T19:56:21;17.02;;;9.57;;
64235;SDS011;50564;47.402;9.740;2024-01-16T20:01:27;9.20;;;4.50;;
64235;SDS011;50564;47.402;9.740;2024-01-16T20:06:36;2.95;;;1.38;;
64235;SDS011;50564;47.402;9.740;2024-01-16T20:11:36;5.47;;;2.70;;
64235;SDS011;50564;47.402;9.740;2024-01-16T20:16:37;46.05;;;20.30;;
64235;SDS011;50564;47.402;9.740;2024-01-16T20:21:39;47.00;;;19.95;;
64235;SDS011;50564;47.402;9.740;2024-01-16T20:26:41;15.02;;;7.25;;
64235;SDS011;50564;47.402;9.740;2024-01-16T20:31:41;3.63;;;1.90;;
64235;SDS011;50564;47.402;9.740;2024-01-16T20:36:44;3.40;;;1.60;;
64235;SDS011;50564;47.402;9.740;2024-01-16T20:41:50;13.20;;;7.53;;
64235;SDS011;50564;47.402;9.740;2024-01-16T20:46:50;15.75;;;8.35;;
64235;SDS011;50564;47.402;9.740;2024-01-16T20:51:51;18.02;;;10.38;;
64235;SDS011;50564;47.402;9.740;2024-01-16T20:56:53;19.58;;;9.60;;
64235;SDS011;50564;47.402;9.740;2024-01-16T21:01:54;5.13;;;2.33;;
64235;SDS011;50564;47.402;9.740;2024-01-16T21:06:55;1.85;;;1.17;;
64235;SDS011;50564;47.402;9.740;2024-01-16T21:11:59;3.38;;;1.58;;
64235;SDS011;50564;47.402;9.740;2024-01-16T21:17:00;3.75;;;1.77;;
64235;SDS011;50564;47.402;9.740;2024-01-16T21:22:01;12.98;;;6.93;;
64235;SDS011;50564;47.402;9.740;2024-01-16T21:27:02;25.30;;;12.20;;
64235;SDS011;50564;47.402;9.740;2024-01-16T21:32:03;16.42;;;10.35;;
64235;SDS011;50564;47.402;9.740;2024-01-16T21:37:04;24.63;;;13.68;;
64235;SDS011;50564;47.402;9.740;2024-01-16T21:42:05;21.90;;;13.65;;
64235;SDS011;50564;47.402;9.740;2024-01-16T21:47:08;26.42;;;14.27;;
64235;SDS011;50564;47.402;9.740;2024-01-16T21:52:09;18.48;;;11.95;;
64235;SDS011;50564;47.402;9.740;2024-01-16T21:57:10;19.33;;;10.40;;
64235;SDS011;50564;47.402;9.740;2024-01-16T22:02:10;13.73;;;7.53;;
64235;SDS011;50564;47.402;9.740;2024-01-16T22:07:13;7.15;;;4.82;;
64235;SDS011;50564;47.402;9.740;2024-01-16T22:12:13;10.40;;;5.40;;
64235;SDS011;50564;47.402;9.740;2024-01-16T22:17:14;8.20;;;5.63;;
64235;SDS011;50564;47.402;9.740;2024-01-16T22:22:15;11.73;;;6.78;;
64235;SDS011;50564;47.402;9.740;2024-01-16T22:27:18;16.70;;;9.25;;
64235;SDS011;50564;47.402;9.740;2024-01-16T22:32:19;12.57;;;8.05;;
64235;SDS011;50564;47.402;9.740;2024-01-16T22:37:21;12.93;;;7.10;;
64235;SDS011;50564;47.402;9.740;2024-01-16T22:42:26;12.77;;;6.07;;
64235;SDS011;50564;47.402;9.740;2024-01-16T22:47:26;9.57;;;5.90;;
64235;SDS011;50564;47.402;9.740;2024-01-16T22:52:27;11.65;;;7.15;;
64235;SDS011;50564;47.402;9.740;2024-01-16T22:57:27;15.80;;;9.82;;
64235;SDS011;50564;47.402;9.740;2024-01-16T23:02:28;10.27;;;5.55;;
64235;SDS011;50564;47.402;9.740;2024-01-16T23:07:29;7.40;;;4.47;;
64235;SDS011;50564;47.402;9.740;2024-01-16T23:12:29;7.32;;;3.80;;
64235;SDS011;50564;47.402;9.740;2024-01-16T23:17:30;7.97;;;4.35;;
64235;SDS011;50564;47.402;9.740;2024-01-16T23:22:31;4.10;;;1.60;;
64235;SDS011;50564;47.402;9.740;2024-01-16T23:27:32;3.65;;;1.60;;
64235;SDS011;50564;47.402;9.740;2024-01-16T23:32:34;2.83;;;1.73;;
64235;SDS011;50564;47.402;9.740;2024-01-16T23:37:35;29.27;;;15.50;;
64235;SDS011;50564;47.402;9.740;2024-01-16T23:42:36;20.30;;;12.77;;
64235;SDS011;50564;47.402;9.740;2024-01-16T23:47:38;17.27;;;9.55;;
64235;SDS011;50564;47.402;9.740;2024-01-16T23:52:39;16.55;;;10.90;;
64235;SDS011;50564;47.402;9.740;2024-01-16T23:57:40;15.25;;;8.20;;
